Beachburg, Canada
Current Conditions -  °F | °C
As of 1:00 PM on Wednesday 28 Jan 2015 (Local Time) from CYWA Reporting Station
Few Clouds Few Clouds  
Wind Chill:   Ceiling: Unl
Heat Index: 16°   Visibility: 15mi
Dew Point: -8°   Wind: 5mph
Humidity: 35%   Direction: 340°NNW
Pressure: 30.25"   Gusts: NA
Location:  45.73°N, 76.85°W
Report Text: CYWA 281800Z 34004KT 15SM FEW240 M09/M22 A3025 RMK CI1DA-2832FT SLP254
Loading
Personal Weather Stations






























Interactive Weather Map New forecast layout! Learn more

10-Day Weather Forecast

Advertisements
Track Severe Weather on mobile